createdAt,value
2022-09-20T00:01:40.861Z,9.13
2022-09-20T00:04:15.196Z,9.15
2022-09-20T00:06:43.440Z,9.17
2022-09-20T00:09:12.374Z,9.06
2022-09-20T00:11:40.547Z,9.05
2022-09-20T00:14:09.419Z,8.62
2022-09-20T00:16:41.172Z,9.06
2022-09-20T00:19:19.897Z,8.94
2022-09-20T00:21:48.321Z,8.89
2022-09-20T00:24:16.546Z,8.85
2022-09-20T00:26:44.763Z,8.78
2022-09-20T00:29:13.784Z,8.73
2022-09-20T00:31:42.956Z,8.71
2022-09-20T00:34:31.485Z,8.58
2022-09-20T00:36:59.700Z,8.68
2022-09-20T00:39:27.982Z,8.64
2022-09-20T00:41:56.160Z,8.73
2022-09-20T00:44:56.786Z,7.77
2022-09-20T00:47:35.358Z,8.28
2022-09-20T00:50:16.112Z,8.61
2022-09-20T00:52:46.122Z,8.55
2022-09-20T00:55:15.411Z,8.61
2022-09-20T00:57:45.266Z,8.63
2022-09-20T01:00:15.116Z,8.02
2022-09-20T01:02:49.628Z,8.52
2022-09-20T01:05:20.875Z,8.58
2022-09-20T01:07:50.551Z,8.58
2022-09-20T01:10:19.332Z,7.68
2022-09-20T01:12:50.702Z,7.85
2022-09-20T01:15:19.702Z,8.31
2022-09-20T01:17:51.741Z,8.11
2022-09-20T01:20:25.008Z,8.11
2022-09-20T01:23:20.049Z,8.06
2022-09-20T01:26:24.329Z,7.98
2022-09-20T01:29:02.594Z,8.00
2022-09-20T01:31:36.289Z,7.99
2022-09-20T01:34:09.755Z,7.93
2022-09-20T01:36:45.257Z,7.99
2022-09-20T01:39:23.666Z,7.87
2022-09-20T01:41:59.154Z,7.89
2022-09-20T01:44:36.932Z,7.94
2022-09-20T01:47:12.537Z,7.91
2022-09-20T01:49:55.616Z,7.94
2022-09-20T01:53:09.006Z,8.01
2022-09-20T01:56:32.361Z,7.99
2022-09-20T01:59:38.799Z,8.09
2022-09-20T02:02:27.012Z,8.06
2022-09-20T02:05:39.605Z,7.96
2022-09-20T02:09:12.298Z,7.99
2022-09-20T02:11:58.362Z,7.88
2022-09-20T02:14:50.014Z,7.73
2022-09-20T02:17:28.973Z,8.01
2022-09-20T02:20:20.457Z,8.01
2022-09-20T02:23:22.692Z,8.16
2022-09-20T02:26:30.563Z,8.28
2022-09-20T02:29:13.135Z,8.32
2022-09-20T02:32:06.828Z,8.34
2022-09-20T02:35:20.073Z,8.29
2022-09-20T02:38:02.940Z,8.34
2022-09-20T02:41:02.753Z,8.39
2022-09-20T02:43:45.725Z,8.36
2022-09-20T02:46:22.791Z,8.43
2022-09-20T02:49:03.830Z,8.27
2022-09-20T02:51:41.797Z,8.35
2022-09-20T02:54:24.045Z,8.31
2022-09-20T02:57:01.719Z,8.41
2022-09-20T02:59:41.335Z,8.39
2022-09-20T03:02:19.446Z,8.42
2022-09-20T03:05:07.184Z,8.39
2022-09-20T03:07:47.635Z,8.29
2022-09-20T03:10:27.158Z,7.53
2022-09-20T03:13:12.108Z,8.34
2022-09-20T03:15:54.914Z,8.24
2022-09-20T03:18:35.356Z,8.25
2022-09-20T03:21:23.754Z,8.34
2022-09-20T03:24:04.388Z,8.43
2022-09-20T03:26:44.610Z,8.39
2022-09-20T03:29:28.333Z,8.31
2022-09-20T03:32:16.684Z,8.43
2022-09-20T03:34:58.024Z,8.43
2022-09-20T03:37:55.727Z,8.50
2022-09-20T03:40:53.823Z,8.36
2022-09-20T03:43:42.530Z,8.40
2022-09-20T03:46:19.724Z,7.61
2022-09-20T03:49:26.049Z,8.37
2022-09-20T03:52:04.272Z,8.20
2022-09-20T03:55:19.022Z,8.26
2022-09-20T03:58:10.497Z,8.36
2022-09-20T04:01:00.633Z,8.34
2022-09-20T04:03:46.018Z,8.25
2022-09-20T04:06:50.739Z,8.29
2022-09-20T04:09:52.159Z,8.26
2022-09-20T04:12:32.365Z,8.25
2022-09-20T04:15:17.611Z,8.22
2022-09-20T04:17:55.741Z,8.24
2022-09-20T04:20:33.169Z,8.26
2022-09-20T04:23:13.738Z,8.47
2022-09-20T04:25:48.169Z,8.43
2022-09-20T04:28:24.749Z,8.43
2022-09-20T04:30:57.992Z,8.46
2022-09-20T04:33:33.106Z,8.21
2022-09-20T04:36:29.680Z,8.26
2022-09-20T04:39:16.814Z,8.24
2022-09-20T04:42:32.639Z,8.16
2022-09-20T04:45:54.902Z,8.34
2022-09-20T04:48:58.816Z,8.35
2022-09-20T04:52:05.182Z,8.38
2022-09-20T04:55:16.504Z,8.38
2022-09-20T04:58:16.914Z,8.46
2022-09-20T05:01:31.582Z,8.44
2022-09-20T05:04:47.257Z,8.50
2022-09-20T05:08:14.219Z,8.41
2022-09-20T05:11:46.991Z,8.43
2022-09-20T05:14:45.049Z,8.28
2022-09-20T05:17:25.247Z,8.42
2022-09-20T05:20:24.108Z,8.38
2022-09-20T05:23:16.635Z,8.29
2022-09-20T05:26:08.146Z,8.25
2022-09-20T05:28:49.565Z,8.19
2022-09-20T05:31:28.324Z,8.25
2022-09-20T05:34:06.324Z,8.38
2022-09-20T05:36:46.672Z,8.41
2022-09-20T05:39:30.521Z,8.50
2022-09-20T05:42:05.709Z,8.27
2022-09-20T05:44:58.902Z,8.39
2022-09-20T05:47:38.225Z,8.33
2022-09-20T05:50:30.034Z,8.54
2022-09-20T05:53:33.576Z,7.80
2022-09-20T05:56:15.024Z,8.35
2022-09-20T05:58:58.152Z,8.43
2022-09-20T06:01:31.485Z,8.28
2022-09-20T06:04:16.081Z,8.22
2022-09-20T06:06:56.025Z,8.18
2022-09-20T06:10:07.608Z,8.26
2022-09-20T06:12:47.792Z,8.13
2022-09-20T06:15:25.224Z,8.14
2022-09-20T06:18:15.080Z,8.24
2022-09-20T06:20:59.123Z,8.45
2022-09-20T06:23:28.053Z,8.46
2022-09-20T06:26:02.862Z,8.48
2022-09-20T06:28:36.024Z,8.55
2022-09-20T06:31:07.335Z,8.62
2022-09-20T06:33:42.168Z,8.55
2022-09-20T06:36:34.399Z,8.63
2022-09-20T06:39:32.876Z,8.53
2022-09-20T06:42:02.764Z,8.35
2022-09-20T06:44:31.233Z,8.53
2022-09-20T06:46:59.609Z,8.54
2022-09-20T06:49:29.249Z,8.65
2022-09-20T06:51:57.510Z,8.79
2022-09-20T06:54:27.148Z,9.05
2022-09-20T06:56:55.776Z,9.15
2022-09-20T06:59:25.376Z,9.19
2022-09-20T07:01:53.624Z,9.25
2022-09-20T07:04:22.127Z,9.16
2022-09-20T07:06:50.361Z,9.27
2022-09-20T07:09:22.069Z,9.14
2022-09-20T07:11:50.234Z,9.35
2022-09-20T07:14:19.206Z,9.44
2022-09-20T07:16:48.796Z,9.09
2022-09-20T07:19:17.334Z,9.13
2022-09-20T07:21:45.538Z,9.11
2022-09-20T07:24:15.117Z,9.10
2022-09-20T07:26:56.518Z,9.20
2022-09-20T07:29:25.217Z,9.36
2022-09-20T07:31:58.953Z,9.38
2022-09-20T07:34:27.682Z,9.48
2022-09-20T07:36:57.399Z,9.51
2022-09-20T07:39:25.747Z,9.26
2022-09-20T07:41:57.617Z,9.26
2022-09-20T07:44:27.718Z,9.18
2022-09-20T07:47:00.305Z,8.29
2022-09-20T07:49:30.664Z,9.43
2022-09-20T07:51:59.288Z,9.64
2022-09-20T07:54:28.467Z,9.59
2022-09-20T07:56:56.835Z,9.63
2022-09-20T07:59:26.056Z,9.63
2022-09-20T08:01:54.311Z,9.67
2022-09-20T08:04:24.530Z,9.61
2022-09-20T08:07:02.780Z,9.66
2022-09-20T08:09:30.987Z,9.57
2022-09-20T08:11:59.258Z,9.28
2022-09-20T08:14:27.477Z,9.69
2022-09-20T08:16:58.221Z,9.89
2022-09-20T08:19:27.818Z,10.06
2022-09-20T08:21:55.963Z,9.83
2022-09-20T08:24:26.234Z,9.86
2022-09-20T08:26:54.511Z,9.93
2022-09-20T08:29:22.699Z,10.13
2022-09-20T08:31:52.579Z,9.99
2022-09-20T08:34:21.040Z,9.99
2022-09-20T08:36:52.679Z,10.03
2022-09-20T08:42:19.977Z,9.92
2022-09-20T08:45:00.436Z,10.98
2022-09-20T08:47:32.699Z,10.43
2022-09-20T08:50:09.781Z,9.68
2022-09-20T08:52:42.708Z,10.36
2022-09-20T08:55:17.339Z,10.31
2022-09-20T08:57:50.097Z,10.53
2022-09-20T09:00:21.158Z,10.96
2022-09-20T09:02:53.956Z,11.01
2022-09-20T09:05:35.858Z,10.95
2022-09-20T09:08:16.160Z,11.03
2022-09-20T09:10:47.420Z,11.13
2022-09-20T09:13:24.876Z,11.13
2022-09-20T09:15:58.673Z,11.13
2022-09-20T09:18:35.055Z,11.54
2022-09-20T09:21:13.750Z,11.43
2022-09-20T09:23:50.970Z,11.14
2022-09-20T09:26:22.499Z,11.03
2022-09-20T09:29:16.871Z,10.91
2022-09-20T09:31:46.596Z,10.88
2022-09-20T09:34:27.538Z,10.81
2022-09-20T09:36:56.726Z,10.93
2022-09-20T09:39:28.744Z,10.81
2022-09-20T09:42:00.927Z,10.94
2022-09-20T09:44:32.744Z,11.00
2022-09-20T09:47:01.602Z,10.90
2022-09-20T09:49:36.263Z,11.05
2022-09-20T09:52:14.947Z,10.83
2022-09-20T09:54:49.014Z,10.82
2022-09-20T09:57:41.004Z,10.98
2022-09-20T10:00:19.085Z,11.17
2022-09-20T10:03:13.851Z,10.09
2022-09-20T10:05:56.032Z,11.10
2022-09-20T10:08:36.443Z,11.31
2022-09-20T10:11:20.951Z,11.07
2022-09-20T10:14:03.396Z,11.27
2022-09-20T10:16:50.172Z,11.41
2022-09-20T10:19:24.785Z,11.72
2022-09-20T10:22:01.788Z,11.84
2022-09-20T10:24:42.581Z,11.53
2022-09-20T10:27:31.868Z,11.51
2022-09-20T10:30:10.261Z,11.23
2022-09-20T10:33:00.582Z,11.10
2022-09-20T10:35:52.564Z,11.15
2022-09-20T10:38:26.299Z,11.18
2022-09-20T10:41:32.188Z,11.09
2022-09-20T10:44:28.453Z,11.25
2022-09-20T10:47:04.247Z,11.25
2022-09-20T10:49:45.121Z,11.31
2022-09-20T10:52:37.866Z,11.40
2022-09-20T10:55:25.268Z,11.49
2022-09-20T10:59:01.476Z,11.92
2022-09-20T11:01:41.114Z,12.06
2022-09-20T11:04:55.560Z,12.60
2022-09-20T11:07:39.266Z,12.94
2022-09-20T11:10:20.223Z,13.11
2022-09-20T11:12:54.361Z,13.40
2022-09-20T11:15:27.344Z,13.29
2022-09-20T11:18:06.103Z,12.73
2022-09-20T11:20:44.256Z,12.86
2022-09-20T11:23:18.173Z,12.04
2022-09-20T11:25:51.923Z,11.74
2022-09-20T11:28:26.030Z,11.35
2022-09-20T11:31:00.854Z,10.94
2022-09-20T11:33:38.102Z,10.71
2022-09-20T11:36:17.294Z,10.64
2022-09-20T11:38:53.362Z,10.76
2022-09-20T11:41:27.877Z,11.05
2022-09-20T11:44:00.447Z,11.20
2022-09-20T11:46:34.421Z,11.45
2022-09-20T11:49:12.126Z,11.21
2022-09-20T11:52:13.967Z,11.80
2022-09-20T11:55:12.024Z,12.59
2022-09-20T11:57:43.032Z,12.17
2022-09-20T12:00:13.165Z,12.19
2022-09-20T12:02:48.604Z,12.40
2022-09-20T12:05:32.212Z,12.14
2022-09-20T12:08:03.447Z,11.79
2022-09-20T12:10:43.514Z,11.56
2022-09-20T12:13:25.530Z,11.84
2022-09-20T12:16:07.838Z,11.73
2022-09-20T12:19:02.652Z,11.92
2022-09-20T12:21:32.315Z,12.35
2022-09-20T12:24:21.688Z,12.30
2022-09-20T12:27:02.639Z,12.49
2022-09-20T12:30:16.018Z,12.72
2022-09-20T12:32:55.068Z,12.97
2022-09-20T12:36:14.471Z,13.17
2022-09-20T12:39:07.885Z,12.84
2022-09-20T12:41:55.672Z,12.83
2022-09-20T12:44:29.849Z,12.99
2022-09-20T12:47:01.999Z,13.44
2022-09-20T12:50:00.017Z,13.40
2022-09-20T12:53:01.089Z,12.82
2022-09-20T12:55:46.074Z,12.99
2022-09-20T12:58:32.329Z,12.24
2022-09-20T13:01:35.822Z,12.35
2022-09-20T13:04:41.004Z,12.20
2022-09-20T13:07:53.885Z,12.56
2022-09-20T13:10:29.138Z,12.46
2022-09-20T13:13:12.303Z,12.91
2022-09-20T13:15:40.818Z,12.64
2022-09-20T13:18:15.465Z,12.33
2022-09-20T13:20:44.402Z,12.49
2022-09-20T13:23:22.383Z,11.92
2022-09-20T13:25:51.632Z,12.01
2022-09-20T13:28:34.614Z,11.99
2022-09-20T13:31:30.731Z,11.85
2022-09-20T13:34:16.238Z,11.69
2022-09-20T13:36:44.630Z,12.12
2022-09-20T13:39:30.022Z,12.31
2022-09-20T13:42:06.955Z,12.81
2022-09-20T13:44:37.604Z,13.34
2022-09-20T13:47:27.115Z,14.10
2022-09-20T13:50:02.157Z,14.40
2022-09-20T13:52:32.457Z,14.44
2022-09-20T13:55:01.067Z,14.73
2022-09-20T13:57:31.161Z,14.41
2022-09-20T14:00:01.659Z,14.43
2022-09-20T14:02:40.311Z,14.60
2022-09-20T14:05:34.268Z,15.06
2022-09-20T14:08:07.469Z,15.32
2022-09-20T14:10:41.087Z,15.75
2022-09-20T14:13:15.404Z,15.87
2022-09-20T14:15:47.146Z,15.70
2022-09-20T14:18:19.919Z,16.32
2022-09-20T14:20:48.990Z,16.08
2022-09-20T14:23:22.843Z,16.65
2022-09-20T14:26:23.456Z,16.29
2022-09-20T14:28:51.695Z,15.09
2022-09-20T14:31:26.493Z,14.28
2022-09-20T14:33:58.145Z,14.45
2022-09-20T14:36:29.952Z,14.10
2022-09-20T14:39:02.260Z,13.84
2022-09-20T14:41:38.449Z,13.97
2022-09-20T14:44:17.439Z,13.83
2022-09-20T14:46:47.004Z,14.24
2022-09-20T14:49:33.866Z,14.67
2022-09-20T14:52:40.857Z,15.29
2022-09-20T14:55:28.284Z,15.52
2022-09-20T14:58:03.388Z,15.95
2022-09-20T15:00:32.185Z,15.83
2022-09-20T15:03:18.623Z,16.31
2022-09-20T15:05:50.887Z,15.96
2022-09-20T15:08:20.360Z,15.42
2022-09-20T15:10:48.814Z,14.77
2022-09-20T15:13:17.399Z,14.62
2022-09-20T15:15:45.908Z,14.27
2022-09-20T15:18:22.637Z,14.19
2022-09-20T15:20:51.543Z,14.26
2022-09-20T15:23:20.069Z,14.09
2022-09-20T15:25:52.021Z,13.84
2022-09-20T15:28:21.915Z,14.01
2022-09-20T15:30:52.463Z,13.96
2022-09-20T15:33:23.145Z,14.67
2022-09-20T15:35:51.370Z,14.85
2022-09-20T15:38:22.642Z,14.77
2022-09-20T15:40:51.335Z,14.66
2022-09-20T15:43:24.027Z,14.33
2022-09-20T15:45:56.236Z,14.06
2022-09-20T15:48:28.061Z,14.48
2022-09-20T15:51:06.676Z,14.79
2022-09-20T15:53:37.496Z,15.58
2022-09-20T15:56:15.585Z,16.32
2022-09-20T15:58:47.345Z,16.51
2022-09-20T16:01:17.572Z,16.68
2022-09-20T16:03:48.935Z,17.00
2022-09-20T16:06:19.368Z,17.40
2022-09-20T16:08:47.900Z,17.73
2022-09-20T16:11:22.613Z,17.69
2022-09-20T16:13:55.116Z,17.68
2022-09-20T16:16:23.492Z,17.64
2022-09-20T16:19:10.964Z,17.57
2022-09-20T16:21:40.558Z,17.44
2022-09-20T16:24:10.461Z,17.31
2022-09-20T16:26:38.940Z,17.22
2022-09-20T16:29:08.178Z,17.08
2022-09-20T16:31:39.813Z,16.76
2022-09-20T16:34:16.902Z,16.86
2022-09-20T16:36:45.427Z,16.85
2022-09-20T16:39:16.040Z,16.31
2022-09-20T16:41:45.312Z,15.94
2022-09-20T16:44:14.010Z,15.90
2022-09-20T16:46:42.528Z,15.46
2022-09-20T16:49:13.444Z,15.41
2022-09-20T16:51:43.543Z,15.11
2022-09-20T16:54:14.431Z,14.89
2022-09-20T16:56:45.241Z,14.89
2022-09-20T16:59:15.609Z,14.52
2022-09-20T17:01:45.083Z,14.45
2022-09-20T17:04:16.784Z,14.24
2022-09-20T17:06:45.881Z,13.87
2022-09-20T17:09:16.538Z,14.06
2022-09-20T17:11:47.251Z,14.11
2022-09-20T17:14:18.568Z,13.40
2022-09-20T17:16:47.792Z,13.54
2022-09-20T17:19:19.579Z,13.39
2022-09-20T17:21:50.624Z,12.74
2022-09-20T17:24:21.907Z,11.80
2022-09-20T17:26:51.717Z,11.62
2022-09-20T17:29:21.443Z,10.41
2022-09-20T17:31:55.479Z,11.24
2022-09-20T17:34:28.163Z,11.04
2022-09-20T17:36:56.358Z,10.71
2022-09-20T17:39:25.052Z,10.45
2022-09-20T17:41:53.268Z,10.50
2022-09-20T17:44:21.682Z,10.53
2022-09-20T17:46:53.869Z,10.33
2022-09-20T17:49:27.683Z,10.21
2022-09-20T17:51:57.042Z,10.25
2022-09-20T17:54:26.182Z,10.35
2022-09-20T17:56:56.473Z,10.32
2022-09-20T17:59:25.609Z,10.26
2022-09-20T18:01:54.766Z,10.08
2022-09-20T18:04:28.361Z,10.02
2022-09-20T18:06:56.711Z,10.08
2022-09-20T18:09:27.181Z,10.21
2022-09-20T18:11:56.727Z,10.07
2022-09-20T18:14:27.933Z,10.10
2022-09-20T18:16:59.932Z,10.06
2022-09-20T18:19:33.008Z,10.19
2022-09-20T18:22:02.709Z,10.23
2022-09-20T18:24:32.094Z,10.15
2022-09-20T18:27:00.796Z,10.21
2022-09-20T18:29:29.299Z,10.05
2022-09-20T18:31:59.627Z,10.10
2022-09-20T18:34:32.116Z,10.23
2022-09-20T18:37:03.656Z,10.43
2022-09-20T18:39:34.863Z,10.48
2022-09-20T18:42:04.116Z,10.50
2022-09-20T18:44:34.300Z,10.55
2022-09-20T18:47:03.809Z,10.31
2022-09-20T18:49:34.381Z,10.75
2022-09-20T18:52:03.541Z,11.33
2022-09-20T18:54:32.172Z,10.73
2022-09-20T18:57:01.841Z,10.70
2022-09-20T18:59:30.673Z,10.59
2022-09-20T19:02:35.853Z,10.70
2022-09-20T19:05:24.289Z,10.74
2022-09-20T19:08:11.149Z,10.72
2022-09-20T19:10:45.822Z,10.45
2022-09-20T19:13:30.435Z,10.64
2022-09-20T19:16:18.509Z,10.46
2022-09-20T19:19:23.632Z,10.44
2022-09-20T19:21:59.933Z,10.47
2022-09-20T19:24:47.682Z,10.38
2022-09-20T19:27:16.393Z,10.43
2022-09-20T19:29:45.764Z,10.51
2022-09-20T19:32:21.225Z,10.39
2022-09-20T19:34:55.061Z,10.26
2022-09-20T19:37:38.166Z,10.29
2022-09-20T19:40:27.456Z,10.45
2022-09-20T19:43:14.452Z,10.43
2022-09-20T19:45:55.677Z,10.34
2022-09-20T19:48:34.040Z,10.31
2022-09-20T19:51:08.108Z,10.16
2022-09-20T19:53:39.629Z,10.28
2022-09-20T19:56:22.928Z,10.49
2022-09-20T19:58:53.014Z,10.37
2022-09-20T20:01:46.633Z,10.34
2022-09-20T20:04:24.688Z,10.50
2022-09-20T20:07:03.214Z,10.36
2022-09-20T20:09:44.198Z,10.28
2022-09-20T20:12:16.372Z,10.33
2022-09-20T20:14:58.296Z,10.26
2022-09-20T20:17:44.119Z,10.25
2022-09-20T20:20:30.401Z,10.06
2022-09-20T20:23:35.581Z,10.23
2022-09-20T20:26:10.066Z,10.15
2022-09-20T20:28:39.004Z,9.79
2022-09-20T20:31:12.295Z,10.15
2022-09-20T20:33:41.276Z,10.22
2022-09-20T20:36:11.209Z,10.17
2022-09-20T20:38:40.839Z,10.03
2022-09-20T20:41:13.437Z,9.97
2022-09-20T20:43:45.644Z,9.70
2022-09-20T20:46:17.486Z,9.73
2022-09-20T20:48:47.214Z,9.72
2022-09-20T20:51:18.168Z,9.81
2022-09-20T20:53:48.155Z,9.78
2022-09-20T20:56:20.404Z,9.66
2022-09-20T20:58:50.202Z,9.70
2022-09-20T21:01:20.381Z,9.69
2022-09-20T21:03:52.054Z,9.61
2022-09-20T21:06:21.107Z,9.54
2022-09-20T21:08:50.137Z,9.60
2022-09-20T21:11:23.396Z,9.52
2022-09-20T21:13:52.120Z,9.48
2022-09-20T21:16:22.942Z,9.53
2022-09-20T21:18:52.265Z,9.33
2022-09-20T21:21:23.024Z,9.23
2022-09-20T21:23:53.612Z,9.27
2022-09-20T21:26:25.258Z,9.17
2022-09-20T21:28:57.959Z,9.10
2022-09-20T21:31:27.820Z,9.05
2022-09-20T21:33:56.440Z,9.09
2022-09-20T21:36:27.941Z,8.87
2022-09-20T21:38:56.422Z,8.92
2022-09-20T21:41:29.271Z,8.76
2022-09-20T21:44:00.058Z,8.85
2022-09-20T21:46:30.556Z,8.70
2022-09-20T21:49:04.015Z,8.13
2022-09-20T21:51:34.130Z,8.60
2022-09-20T21:54:03.833Z,8.58
2022-09-20T21:56:35.582Z,8.55
2022-09-20T21:59:09.385Z,8.47
2022-09-20T22:01:41.248Z,8.43
2022-09-20T22:04:13.715Z,8.49
2022-09-20T22:06:46.437Z,8.43
2022-09-20T22:09:16.689Z,8.17
2022-09-20T22:11:48.364Z,8.09
2022-09-20T22:14:19.646Z,8.04
2022-09-20T22:16:51.183Z,7.99
2022-09-20T22:19:19.992Z,7.78
2022-09-20T22:21:51.013Z,7.86
2022-09-20T22:24:19.777Z,7.91
2022-09-20T22:26:53.564Z,7.82
2022-09-20T22:29:22.069Z,7.93
2022-09-20T22:31:51.268Z,7.85
2022-09-20T22:34:22.000Z,7.68
2022-09-20T22:36:50.654Z,7.74
2022-09-20T22:39:19.140Z,7.84
2022-09-20T22:41:49.358Z,7.70
2022-09-20T22:44:17.630Z,7.69
2022-09-20T22:46:45.815Z,7.65
2022-09-20T22:49:14.000Z,7.69
2022-09-20T22:51:42.233Z,7.59
2022-09-20T22:54:12.985Z,7.56
2022-09-20T22:56:42.494Z,7.56
2022-09-20T22:59:13.861Z,7.54
2022-09-20T23:01:43.857Z,7.44
2022-09-20T23:04:14.813Z,6.95
2022-09-20T23:06:46.924Z,7.37
2022-09-20T23:09:18.356Z,6.57
2022-09-20T23:11:47.483Z,7.16
2022-09-20T23:14:19.193Z,7.27
2022-09-20T23:16:48.304Z,7.15
2022-09-20T23:19:17.528Z,7.12
2022-09-20T23:21:46.134Z,7.12
2022-09-20T23:24:19.676Z,7.09
2022-09-20T23:26:48.670Z,6.95
2022-09-20T23:29:18.666Z,6.96
2022-09-20T23:31:47.889Z,6.98
2022-09-20T23:34:17.399Z,6.86
2022-09-20T23:36:46.642Z,6.78
2022-09-20T23:39:15.256Z,6.85
2022-09-20T23:41:48.392Z,6.85
2022-09-20T23:44:20.452Z,6.75
2022-09-20T23:46:48.635Z,6.75
2022-09-20T23:49:16.978Z,6.75
2022-09-20T23:51:45.162Z,6.73
2022-09-20T23:54:13.368Z,6.70
2022-09-20T23:56:42.737Z,6.53
2022-09-20T23:59:10.921Z,6.70
